Správy METAR z letísk v Slovenskej republike

LZTT - Poprad Tatry, Slovenská republika
Vzdialenosť od tejto stanice: Západne 25km
Aktualizované: 20.01.2018 05:30
 
Teplota vzduchu: -10°C
Vietor: ZJZ 6 km/h
Rosný bod: -11°C
Vlhkosť vzduchu: 92%
Tlak vzduchu: 1009 hPa
Oblačnosť: skoro zatiahnuto
Viditeľnosť: 10 km
Detaily oblačnosti: skoro zatiahnuto 610 m
2018/01/20 04:30 LZTT 200430Z 25003KT 9999 BKN020 M10/M11 Q1009
LZKZ - Košice, Slovenská republika
Vzdialenosť od tejto stanice: VJV 62km
Aktualizované: 20.01.2018 05:30
 
Teplota vzduchu: -3°C
Vietor: VJV 6 km/h
Rosný bod: -4°C
Vlhkosť vzduchu: 93%
Tlak vzduchu: 1011 hPa
Oblačnosť: oblačno
Viditeľnosť: 9 km
Detaily oblačnosti: skoro jasno 1158 m
oblačno 1768 m
2018/01/20 04:30 LZKZ 200430Z 12003KT 060V130 9000 FEW038 SCT058 M03/M04 Q1011
 
LZSL - Sliač, Slovenská republika
Vzdialenosť od tejto stanice: ZJZ 131km
Aktualizované: 20.01.2018 05:47
 
Teplota vzduchu: -3°C
Vietor: V 2 km/h
Rosný bod: -4°C
Vlhkosť vzduchu: 93%
Tlak vzduchu: 1011 hPa
Stav počasia: mrznucí hmla
Oblačnosť: skoro zatiahnuto
Viditeľnosť: 1 km
Detaily oblačnosti: skoro jasno 30 m
skoro zatiahnuto 914 m
2018/01/20 04:47 LZSL 200447Z 10001KT 0900 R36/0650U FZFG FEW001 BKN030 M03/M04 Q1011
LZZI - Žilina, Slovenská republika
Vzdialenosť od tejto stanice: Západne 161km
Aktualizované: 20.01.2018 05:30
 
Teplota vzduchu: 0°C
Vietor: ZSZ 6 km/h
Rosný bod: -1°C
Vlhkosť vzduchu: 93%
Tlak vzduchu: 1010 hPa
Oblačnosť: skoro zatiahnuto
Viditeľnosť: 10 km
Detaily oblačnosti: skoro zatiahnuto 457 m
2018/01/20 04:30 LZZI 200430Z 30003KT 9999 BKN015 00/M01 Q1010
 
LZIB - Bratislava, Slovernská republika
Vzdialenosť od tejto stanice: ZJZ 274km
Aktualizované: 20.01.2018 05:30
 
Teplota vzduchu: -2°C
Vietor: S 4 km/h
Rosný bod: -3°C
Vlhkosť vzduchu: 93%
Tlak vzduchu: 1012 hPa
Stav počasia: Jasno
Oblačnosť: jasná obloha
Viditeľnosť: viac ako 10 km
2018/01/20 04:30 LZIB 200430Z 36002KT CAVOK M02/M03 Q1012 R04/79//95 R13/2///95
LZPP - Piešťany, Slovenská republika
Vzdialenosť od tejto stanice: ZJZ 237km
Aktualizované: 20.01.2018 05:30
 
Teplota vzduchu: -4°C
Vietor: premenlivý 4 km/h
Rosný bod: -4°C
Vlhkosť vzduchu: 100%
Tlak vzduchu: 1012 hPa
Stav počasia: mrznucí hmla
Oblačnosť: zatiahnuto
Viditeľnosť: 1 km
Detaily oblačnosti: oblačno 61 m
zatiahnuto 3962 m
2018/01/20 04:30 LZPP 200430Z AUTO VRB02KT 0750 R01/1600N FZFG SCT002/// OVC130/// M04/M04 Q1012
 
LZNI - Nitra, Slovenská republika
Vzdialenosť od tejto stanice: ZJZ 207km
Aktualizované: 31.12.2012 21:00
Údaje nie sú aktuálne
 
Teplota vzduchu: 1°C
Vietor: premenlivý 0 km/h
Rosný bod: -2°C
Vlhkosť vzduchu: 81%
Tlak vzduchu: 1022 hPa
Stav počasia: Jasno
Oblačnosť: jasná obloha
Viditeľnosť: viac ako 10 km
2012/12/31 20:00 LZNI 312000Z /////KT CAVOK 01/M02 Q1022
LZPE - Prievidza, Slovenská republika
Vzdialenosť od tejto stanice: ZJZ 148km
Aktualizované: 31.12.2012 21:00
Údaje nie sú aktuálne
 
Teplota vzduchu: -3°C
Vietor: premenlivý 0 km/h
Rosný bod: -4°C
Vlhkosť vzduchu: 93%
Tlak vzduchu: 1022 hPa
Stav počasia: Jasno
Oblačnosť: jasná obloha
Viditeľnosť: viac ako 10 km
2012/12/31 20:00 LZPE 312000Z /////KT CAVOK M03/M04 Q1022
 
LZKC - Kamenica nad Cirochou, Slovenská republika
Vzdialenosť od tejto stanice: VJV 90km
Aktualizované: 01.01.2013 13:00
Údaje nie sú aktuálne
 
Teplota vzduchu: 4°C
Chlad vetra: 1°C
Vietor: JJZ 11 km/h
Rosný bod: -7°C
Vlhkosť vzduchu: 45%
Tlak vzduchu: 1019 hPa
Oblačnosť: skoro jasno
Viditeľnosť: 10 km
Detaily oblačnosti: skoro jasno 1615 m
2013/01/01 12:00 LZKC 011200Z 21006KT 150V290 9999 FEW053 04/M07 Q1019
LZLU - Lučenec, Slovenská republika
Vzdialenosť od tejto stanice: ZJZ 123km
Aktualizované: 14.03.2013 12:10
Údaje nie sú aktuálne
 
Teplota vzduchu: 2°C
Chlad vetra: -2°C
Vietor: V 17 km/h
Rosný bod: 1°C
Vlhkosť vzduchu: 93%
Tlak vzduchu: 994 hPa
2013/03/14 11:10 LZLU 141110Z AUTO 08009KT //// ////// 02/01 Q0994

Metar display script od Saratoga-Weather.org
upravil a preložil Miloš Jiřík Konečná úprava a preklad do Slovenčiny Teodor Zibura